Feltwell, United Kingdom
Current Conditions -  °F | °C
As of 4:58 AM on Monday 22 Dec 2014 (Local Time) from EGUL Reporting Station
Overcast Overcast  
Wind Chill: 55°   Ceiling: 1900
Heat Index: 55°   Visibility: 6mi
Dew Point: 55°   Wind: 22mph
Humidity: 100%   Direction: 240°WSW
Pressure: 29.94"   Gusts: 33mph
Location:  52.49°N, 0.52°E
Report Text: EGUL 220458Z AUTO 24019G29KT 9999 OVC019 13/13 A2994 RMK AO2 PK WND 22029/47 SLP142 T01250125
Loading
Personal Weather Stations






























Interactive Weather Map New forecast layout! Learn more

10-Day Weather Forecast

Advertisements
Track Severe Weather on mobile